Αρχική σελίδα
METAR-TAF:

METAR-TAF

Αεροδρόμια :

Όσλο, Νορβηγία

γεωγραφικό πλάτος: 60-12N, γεωγραφικό μήκος: 011-05E, υψόμετρο: 208 μ

Παρών καιρός

Η αναφορά έγινε 28 λεπτά πριν, στις 07:50 UTC
Άνεμος 11 kt από Β
Θερμοκρασία 21°C
Υγρασία 49%
Πίεση 1016 hPa
Ορατότητα 10 χλμ και άνω
Δεν υπάρχουν νέφη με βάση κάτω από τα 1500 μ. και δεν υπάρχουν νέφη σωρειτομελανίτες.

METAR: ENGM 250750Z 36011KT CAVOK 21/10 Q1016 NOSIG

Χρόνος: 10:18 (08:18 UTC)

Πρόγνωση Καιρού

Η πρόγνωση ισχύει από τις 25 στις 06 UTC έως τις 26 στις 06 UTC
Άνεμος 8 kt από Β
Ορατότητα 10 χλμ και άνω
Δεν υπάρχουν νέφη με βάση κάτω από τα 1500 μ. και δεν υπάρχουν νέφη σωρειτομελανίτες.

TAF: ENGM 2506/2606 36008KT CAVOK

Μετεωρολογικές αναφορές και προγνώσεις για περισσότερα από 4000 αεροδρόμια (δελτία METAR και TAF).

Οι διαθέσιμοι σταθμοί απεικονίζονται στο χάρτη με κίτρινες και κόκκινες κουκκίδες.

Μετακινήστε το ποντίκι πάνω από τις κουκκίδες για να δείτε το όνομα του σταθμού.

Στη συνέχεια, κάντε κλικ για να δείτε τις μετεωρολογικές αναφορές και τις προγνώσεις καιρού.

Για να αλλάξετε το χάρτη: κάντε κλικ στα πράσινα κουμπιά με τον μαύρο σταυρό για να ζουμάρετε, στο πράσινο κουμπί με την παύλα για να αφαιρέσετε το ζουμ ή στα πράσινα βέλη για να αντιπαραβάλλετε χάρτες.


METAR-TAF: